createdAt,value
2023-01-03T00:00:04.631Z,43.94
2023-01-03T00:02:33.591Z,43.88
2023-01-03T00:05:03.772Z,43.57
2023-01-03T00:07:34.521Z,43.84
2023-01-03T00:10:03.870Z,44.69
2023-01-03T00:12:32.229Z,47.38
2023-01-03T00:14:59.579Z,50.19
2023-01-03T00:17:27.332Z,51.06
2023-01-03T00:19:54.580Z,53.50
2023-01-03T00:22:22.158Z,52.08
2023-01-03T00:24:50.635Z,53.33
2023-01-03T00:27:17.847Z,52.60
2023-01-03T00:29:45.135Z,54.00
2023-01-03T00:32:12.635Z,53.96
2023-01-03T00:34:39.991Z,54.76
2023-01-03T00:37:07.149Z,52.51
2023-01-03T00:39:34.570Z,51.71
2023-01-03T00:42:01.893Z,54.27
2023-01-03T00:44:29.069Z,59.22
2023-01-03T00:46:56.710Z,57.23
2023-01-03T00:49:24.042Z,60.21
2023-01-03T00:51:51.219Z,55.53
2023-01-03T00:54:18.686Z,57.71
2023-01-03T00:56:46.498Z,57.28
2023-01-03T00:59:14.228Z,57.55
2023-01-03T01:01:47.045Z,56.52
2023-01-03T01:04:14.873Z,56.87
2023-01-03T01:06:43.403Z,59.94
2023-01-03T01:09:11.742Z,58.93
2023-01-03T01:11:40.509Z,57.51
2023-01-03T01:14:19.916Z,60.13
2023-01-03T01:16:48.327Z,57.74
2023-01-03T01:19:17.056Z,57.85
2023-01-03T01:21:44.262Z,57.05
2023-01-03T01:24:15.918Z,54.91
2023-01-03T01:26:45.374Z,54.91
2023-01-03T01:29:13.015Z,54.99
2023-01-03T01:31:40.644Z,55.76
2023-01-03T01:34:08.432Z,54.76
2023-01-03T01:36:37.626Z,54.07
2023-01-03T01:39:06.173Z,56.65
2023-01-03T01:41:52.938Z,55.60
2023-01-03T01:44:38.889Z,56.30
2023-01-03T01:47:11.035Z,55.75
2023-01-03T01:49:38.183Z,56.86
2023-01-03T01:52:05.348Z,56.26
2023-01-03T01:54:32.816Z,58.27
2023-01-03T01:57:00.025Z,56.02
2023-01-03T01:59:28.444Z,56.36
2023-01-03T02:01:55.996Z,54.93
2023-01-03T02:04:24.694Z,54.47
2023-01-03T02:06:52.243Z,55.64
2023-01-03T02:09:21.587Z,55.25
2023-01-03T02:11:48.675Z,62.02
2023-01-03T02:14:28.719Z,59.18
2023-01-03T02:17:02.123Z,59.81
2023-01-03T02:19:39.158Z,61.54
2023-01-03T02:22:09.297Z,60.62
2023-01-03T02:24:36.760Z,57.51
2023-01-03T02:27:22.444Z,58.25
2023-01-03T02:30:11.301Z,59.94
2023-01-03T02:32:44.537Z,58.89
2023-01-03T02:35:12.055Z,62.23
2023-01-03T02:37:59.079Z,60.32
2023-01-03T02:40:29.467Z,59.82
2023-01-03T02:43:02.838Z,59.35
2023-01-03T02:45:36.112Z,62.35
2023-01-03T02:48:11.890Z,63.57
2023-01-03T02:50:41.025Z,62.98
2023-01-03T02:53:08.956Z,62.04
2023-01-03T02:55:36.220Z,63.80
2023-01-03T02:58:10.994Z,61.83
2023-01-03T03:00:39.021Z,62.59
2023-01-03T03:03:06.922Z,65.04
2023-01-03T03:05:36.333Z,61.15
2023-01-03T03:08:03.496Z,61.04
2023-01-03T03:10:49.471Z,59.88
2023-01-03T03:13:29.163Z,60.21
2023-01-03T03:16:06.787Z,61.47
2023-01-03T03:18:41.705Z,62.24
2023-01-03T03:21:28.536Z,61.30
2023-01-03T03:24:34.971Z,61.57
2023-01-03T03:27:22.899Z,61.86
2023-01-03T03:29:50.370Z,61.03
2023-01-03T03:32:17.791Z,58.41
2023-01-03T03:34:45.075Z,59.34
2023-01-03T03:37:14.055Z,59.89
2023-01-03T03:40:00.196Z,58.90
2023-01-03T03:42:55.054Z,56.04
2023-01-03T03:45:25.565Z,56.21
2023-01-03T03:48:11.659Z,57.51
2023-01-03T03:50:48.200Z,56.03
2023-01-03T03:53:16.108Z,55.99
2023-01-03T03:55:44.624Z,56.82
2023-01-03T03:58:17.166Z,57.43
2023-01-03T04:00:44.591Z,58.12
2023-01-03T04:03:12.230Z,56.09
2023-01-03T04:05:40.556Z,55.07
2023-01-03T04:08:07.740Z,56.03
2023-01-03T04:10:37.961Z,55.64
2023-01-03T04:13:05.606Z,56.97
2023-01-03T04:15:32.781Z,57.82
2023-01-03T04:18:02.523Z,58.32
2023-01-03T04:20:30.047Z,60.78
2023-01-03T04:22:57.287Z,59.67
2023-01-03T04:25:24.922Z,61.03
2023-01-03T04:27:52.052Z,60.96
2023-01-03T04:30:19.212Z,60.54
2023-01-03T04:32:46.669Z,61.74
2023-01-03T04:35:13.870Z,58.12
2023-01-03T04:37:41.059Z,59.22
2023-01-03T04:40:08.812Z,59.49
2023-01-03T04:42:54.960Z,62.16
2023-01-03T04:45:22.529Z,62.82
2023-01-03T04:47:49.699Z,61.33
2023-01-03T04:50:16.922Z,60.79
2023-01-03T04:52:44.341Z,62.16
2023-01-03T04:55:13.140Z,63.74
2023-01-03T04:57:40.396Z,61.09
2023-01-03T05:00:08.753Z,60.73
2023-01-03T05:02:35.914Z,63.06
2023-01-03T05:05:03.175Z,63.34
2023-01-03T05:07:30.612Z,62.95
2023-01-03T05:09:57.790Z,62.96
2023-01-03T05:12:25.367Z,61.50
2023-01-03T05:14:52.897Z,61.48
2023-01-03T05:17:20.437Z,60.34
2023-01-03T05:20:06.507Z,59.57
2023-01-03T05:22:52.724Z,57.08
2023-01-03T05:25:38.642Z,57.20
2023-01-03T05:28:06.101Z,56.24
2023-01-03T05:30:33.800Z,58.54
2023-01-03T05:33:00.980Z,57.82
2023-01-03T05:35:28.446Z,58.32
2023-01-03T05:37:55.625Z,58.76
2023-01-03T05:40:22.811Z,60.81
2023-01-03T05:42:50.227Z,62.51
2023-01-03T05:45:17.455Z,60.13
2023-01-03T05:47:44.625Z,63.33
2023-01-03T05:50:12.049Z,61.23
2023-01-03T05:52:39.186Z,57.80
2023-01-03T05:55:06.435Z,57.62
2023-01-03T05:57:35.570Z,61.85
2023-01-03T06:00:03.869Z,60.88
2023-01-03T06:02:32.765Z,63.50
2023-01-03T06:05:00.219Z,61.75
2023-01-03T06:07:29.254Z,58.79
2023-01-03T06:09:56.409Z,61.18
2023-01-03T06:12:25.946Z,61.52
2023-01-03T06:14:53.477Z,60.21
2023-01-03T06:17:39.404Z,60.43
2023-01-03T06:20:06.996Z,61.01
2023-01-03T06:22:34.167Z,62.61
2023-01-03T06:25:01.331Z,62.03
2023-01-03T06:27:29.366Z,57.47
2023-01-03T06:29:56.631Z,59.24
2023-01-03T06:32:23.870Z,59.78
2023-01-03T06:34:51.312Z,60.68
2023-01-03T06:37:18.472Z,60.59
2023-01-03T06:39:45.827Z,59.63
2023-01-03T06:42:31.954Z,60.53
2023-01-03T06:45:18.033Z,61.09
2023-01-03T06:48:04.264Z,58.71
2023-01-03T06:50:50.056Z,57.21
2023-01-03T06:53:19.178Z,60.71
2023-01-03T06:55:52.756Z,61.93
2023-01-03T06:58:23.815Z,59.15
2023-01-03T07:00:50.988Z,61.66
2023-01-03T07:03:18.158Z,60.13
2023-01-03T07:05:45.625Z,60.59
2023-01-03T07:08:12.769Z,58.06
2023-01-03T07:10:41.392Z,59.33
2023-01-03T07:13:27.440Z,59.62
2023-01-03T07:15:54.614Z,61.18
2023-01-03T07:18:22.186Z,61.46
2023-01-03T07:20:49.380Z,58.48
2023-01-03T07:23:16.512Z,57.84
2023-01-03T07:25:43.997Z,58.33
2023-01-03T07:28:11.733Z,57.01
2023-01-03T07:30:39.763Z,59.73
2023-01-03T07:33:07.809Z,58.38
2023-01-03T07:35:35.307Z,56.38
2023-01-03T07:38:04.499Z,57.54
2023-01-03T07:40:32.171Z,60.51
2023-01-03T07:43:17.955Z,58.79
2023-01-03T07:45:45.600Z,57.71
2023-01-03T07:48:13.176Z,57.30
2023-01-03T07:50:40.512Z,54.60
2023-01-03T07:53:08.367Z,55.54
2023-01-03T07:55:35.948Z,54.14
2023-01-03T07:58:03.096Z,56.14
2023-01-03T08:00:30.528Z,55.75
2023-01-03T08:02:58.036Z,57.10
2023-01-03T08:05:25.344Z,57.42
2023-01-03T08:07:52.744Z,58.19
2023-01-03T08:10:39.563Z,58.21
2023-01-03T08:13:17.489Z,57.63
2023-01-03T08:15:51.960Z,57.31
2023-01-03T08:18:20.135Z,57.11
2023-01-03T08:20:47.837Z,56.97
2023-01-03T08:23:15.079Z,54.26
2023-01-03T08:25:42.232Z,58.00
2023-01-03T08:28:09.989Z,56.18
2023-01-03T08:30:47.268Z,55.20
2023-01-03T08:33:15.076Z,56.14
2023-01-03T08:35:43.145Z,59.77
2023-01-03T08:38:11.349Z,60.64
2023-01-03T08:40:42.102Z,59.11
2023-01-03T08:44:50.006Z,56.52
2023-01-03T08:47:17.697Z,56.52
2023-01-03T08:49:44.928Z,57.56
2023-01-03T08:52:12.060Z,54.20
2023-01-03T08:54:39.726Z,57.46
2023-01-03T08:57:06.979Z,56.57
2023-01-03T08:59:34.167Z,56.11
2023-01-03T09:02:02.104Z,53.73
2023-01-03T09:04:29.400Z,55.60
2023-01-03T09:06:56.868Z,53.49
2023-01-03T09:09:24.299Z,54.78
2023-01-03T09:11:51.471Z,56.43
2023-01-03T09:14:18.611Z,57.91
2023-01-03T09:16:49.368Z,56.12
2023-01-03T09:19:17.522Z,56.13
2023-01-03T09:21:44.870Z,55.90
2023-01-03T09:24:12.382Z,55.03
2023-01-03T09:26:39.695Z,59.59
2023-01-03T09:29:06.901Z,60.58
2023-01-03T09:31:35.416Z,59.02
2023-01-03T09:34:05.799Z,58.49
2023-01-03T09:36:33.011Z,60.23
2023-01-03T09:39:00.517Z,57.43
2023-01-03T09:41:27.763Z,56.26
2023-01-03T09:43:59.391Z,59.13
2023-01-03T09:46:27.601Z,57.79
2023-01-03T09:49:00.237Z,60.19
2023-01-03T09:51:51.032Z,61.70
2023-01-03T09:54:47.786Z,58.08
2023-01-03T09:57:35.620Z,60.32
2023-01-03T10:00:21.948Z,61.17
2023-01-03T10:03:14.862Z,61.89
2023-01-03T10:05:51.440Z,62.29
2023-01-03T10:08:24.731Z,61.57
2023-01-03T10:11:02.017Z,61.74
2023-01-03T10:13:29.484Z,62.89
2023-01-03T10:15:56.770Z,60.58
2023-01-03T10:18:39.094Z,59.70
2023-01-03T10:21:08.095Z,59.96
2023-01-03T10:23:35.822Z,59.97
2023-01-03T10:26:05.780Z,56.70
2023-01-03T10:28:37.287Z,56.45
2023-01-03T10:31:24.110Z,56.09
2023-01-03T10:33:51.641Z,57.41
2023-01-03T10:36:19.825Z,59.69
2023-01-03T10:38:52.963Z,59.28
2023-01-03T10:41:21.609Z,57.86
2023-01-03T10:44:02.084Z,56.85
2023-01-03T10:46:30.937Z,57.52
2023-01-03T10:49:29.544Z,57.39
2023-01-03T10:52:02.319Z,58.71
2023-01-03T10:54:52.823Z,58.39
2023-01-03T10:57:33.918Z,58.07
2023-01-03T11:00:01.265Z,61.39
2023-01-03T11:02:28.969Z,58.77
2023-01-03T11:05:07.726Z,56.74
2023-01-03T11:07:35.142Z,57.92
2023-01-03T11:10:02.349Z,57.69
2023-01-03T11:12:29.474Z,59.25
2023-01-03T11:14:57.810Z,57.25
2023-01-03T11:17:25.586Z,58.84
2023-01-03T11:19:52.905Z,56.26
2023-01-03T11:22:41.632Z,56.23
2023-01-03T11:25:08.740Z,55.37
2023-01-03T11:27:51.292Z,57.65
2023-01-03T11:30:18.574Z,58.91
2023-01-03T11:32:46.020Z,58.95
2023-01-03T11:35:24.279Z,58.15
2023-01-03T11:37:56.569Z,56.40
2023-01-03T11:40:42.765Z,56.43
2023-01-03T11:43:16.295Z,58.03
2023-01-03T11:45:49.796Z,57.72
2023-01-03T11:48:35.929Z,57.15
2023-01-03T11:51:16.189Z,56.24
2023-01-03T11:53:52.815Z,54.51
2023-01-03T11:56:28.062Z,57.83
2023-01-03T11:59:14.420Z,56.02
2023-01-03T12:01:54.090Z,53.89
2023-01-03T12:04:25.664Z,55.01
2023-01-03T12:07:46.240Z,56.80
2023-01-03T12:10:07.090Z,55.46
2023-01-03T12:12:37.787Z,53.94
2023-01-03T12:15:13.491Z,56.46
2023-01-03T12:17:45.151Z,54.41
2023-01-03T12:20:28.546Z,53.10
2023-01-03T12:23:15.814Z,52.36
2023-01-03T12:25:43.907Z,52.22
2023-01-03T12:28:11.077Z,55.09
2023-01-03T12:30:40.943Z,52.12
2023-01-03T12:33:14.754Z,52.76
2023-01-03T12:35:44.493Z,54.32
2023-01-03T12:38:12.122Z,54.83
2023-01-03T12:40:42.596Z,54.84
2023-01-03T12:43:22.126Z,53.80
2023-01-03T12:46:03.383Z,52.07
2023-01-03T12:48:42.504Z,55.78
2023-01-03T12:51:09.978Z,53.80
2023-01-03T12:53:39.722Z,55.30
2023-01-03T12:56:16.178Z,54.67
2023-01-03T12:58:57.000Z,53.33
2023-01-03T13:01:28.769Z,53.92
2023-01-03T13:03:58.092Z,52.65
2023-01-03T13:06:32.324Z,52.51
2023-01-03T13:09:01.561Z,52.22
2023-01-03T13:11:31.851Z,52.37
2023-01-03T13:14:03.550Z,53.37
2023-01-03T13:16:41.934Z,54.32
2023-01-03T13:19:35.467Z,54.25
2023-01-03T13:22:03.025Z,53.85
2023-01-03T13:24:38.937Z,53.64
2023-01-03T13:27:22.588Z,55.54
2023-01-03T13:29:49.826Z,52.40
2023-01-03T13:32:25.153Z,52.51
2023-01-03T13:34:58.178Z,52.64
2023-01-03T13:37:26.276Z,54.47
2023-01-03T13:40:17.307Z,51.16
2023-01-03T13:42:44.743Z,51.77
2023-01-03T13:45:11.922Z,51.38
2023-01-03T13:47:42.502Z,51.30
2023-01-03T13:50:22.972Z,52.25
2023-01-03T13:52:58.044Z,51.44
2023-01-03T13:55:38.008Z,53.63
2023-01-03T13:58:28.239Z,52.48
2023-01-03T14:01:01.868Z,53.65
2023-01-03T14:03:42.359Z,54.89
2023-01-03T14:06:12.556Z,55.02
2023-01-03T14:08:39.973Z,54.90
2023-01-03T14:11:19.456Z,52.96
2023-01-03T14:13:47.295Z,53.07
2023-01-03T14:16:14.790Z,51.76
2023-01-03T14:18:44.996Z,51.08
2023-01-03T14:21:16.547Z,52.82
2023-01-03T14:24:02.819Z,51.94
2023-01-03T14:26:35.352Z,52.34
2023-01-03T14:29:02.508Z,53.07
2023-01-03T14:31:29.767Z,54.85
2023-01-03T14:34:00.686Z,52.88
2023-01-03T14:36:28.193Z,52.64
2023-01-03T14:38:58.330Z,51.62
2023-01-03T14:41:32.920Z,51.49
2023-01-03T14:44:00.115Z,53.81
2023-01-03T14:46:28.558Z,53.51
2023-01-03T14:49:02.679Z,56.30
2023-01-03T14:51:34.834Z,55.19
2023-01-03T14:54:02.221Z,55.35
2023-01-03T14:56:29.608Z,56.62
2023-01-03T14:58:57.532Z,55.62
2023-01-03T15:01:24.864Z,55.87
2023-01-03T15:03:53.406Z,55.61
2023-01-03T15:06:22.638Z,54.80
2023-01-03T15:08:51.314Z,54.37
2023-01-03T15:11:28.064Z,56.56
2023-01-03T15:13:56.956Z,55.49
2023-01-03T15:16:26.850Z,54.08
2023-01-03T15:18:59.067Z,55.82
2023-01-03T15:21:26.828Z,54.41
2023-01-03T15:23:53.970Z,53.46
2023-01-03T15:26:22.812Z,56.43
2023-01-03T15:29:09.779Z,53.65
2023-01-03T15:31:37.978Z,55.44
2023-01-03T15:34:15.963Z,55.41
2023-01-03T15:36:46.098Z,55.50
2023-01-03T15:39:24.592Z,56.10
2023-01-03T15:45:04.251Z,53.69
2023-01-03T15:47:31.497Z,54.82
2023-01-03T15:49:59.204Z,55.14
2023-01-03T15:52:26.717Z,54.47
2023-01-03T15:54:53.886Z,54.83
2023-01-03T15:57:21.692Z,56.78
2023-01-03T15:59:56.798Z,56.58
2023-01-03T16:02:27.062Z,57.23
2023-01-03T16:04:56.880Z,55.97
2023-01-03T16:07:26.277Z,54.20
2023-01-03T16:09:53.547Z,52.62
2023-01-03T16:12:23.415Z,53.12
2023-01-03T16:14:51.441Z,52.51
2023-01-03T16:17:24.691Z,53.21
2023-01-03T16:19:52.700Z,52.31
2023-01-03T16:22:36.534Z,52.20
2023-01-03T16:25:05.596Z,51.67
2023-01-03T16:27:32.922Z,51.24
2023-01-03T16:30:00.158Z,52.93
2023-01-03T16:32:33.913Z,52.44
2023-01-03T16:35:01.844Z,53.29
2023-01-03T16:37:30.491Z,52.03
2023-01-03T16:39:58.584Z,53.90
2023-01-03T16:42:29.173Z,53.38
2023-01-03T16:44:57.071Z,50.89
2023-01-03T16:47:27.610Z,51.73
2023-01-03T16:49:57.664Z,51.69
2023-01-03T16:52:25.747Z,51.34
2023-01-03T16:54:53.402Z,51.84
2023-01-03T16:57:21.192Z,50.27
2023-01-03T16:59:48.733Z,52.43
2023-01-03T17:02:16.206Z,53.44
2023-01-03T17:04:43.599Z,52.26
2023-01-03T17:07:18.395Z,53.68
2023-01-03T17:09:45.794Z,54.62
2023-01-03T17:12:13.216Z,53.56
2023-01-03T17:14:40.806Z,54.47
2023-01-03T17:17:15.259Z,52.53
2023-01-03T17:20:03.386Z,52.26
2023-01-03T17:22:30.407Z,53.07
2023-01-03T17:24:57.835Z,52.68
2023-01-03T17:27:31.985Z,55.26
2023-01-03T17:30:01.464Z,54.02
2023-01-03T17:32:28.688Z,56.37
2023-01-03T17:34:55.827Z,55.39
2023-01-03T17:37:23.288Z,53.45
2023-01-03T17:39:54.301Z,51.51
2023-01-03T17:42:21.491Z,54.64
2023-01-03T17:45:08.170Z,52.54
2023-01-03T17:47:56.169Z,54.19
2023-01-03T17:50:23.726Z,57.80
2023-01-03T17:52:55.586Z,56.32
2023-01-03T17:55:28.227Z,56.21
2023-01-03T17:57:55.736Z,54.95
2023-01-03T18:00:24.655Z,56.96
2023-01-03T18:02:52.780Z,60.53
2023-01-03T18:05:27.165Z,57.68
2023-01-03T18:08:18.691Z,54.80
2023-01-03T18:10:47.467Z,55.11
2023-01-03T18:13:19.564Z,55.17
2023-01-03T18:15:46.778Z,56.00
2023-01-03T18:18:15.120Z,55.81
2023-01-03T18:20:42.601Z,60.76
2023-01-03T18:23:13.887Z,58.02
2023-01-03T18:25:41.089Z,61.22
2023-01-03T18:28:08.505Z,58.77
2023-01-03T18:30:35.711Z,57.98
2023-01-03T18:33:02.888Z,57.12
2023-01-03T18:35:37.547Z,58.03
2023-01-03T18:38:05.660Z,59.28
2023-01-03T18:40:33.103Z,58.00
2023-01-03T18:43:12.762Z,59.34
2023-01-03T18:45:41.203Z,58.81
2023-01-03T18:48:12.532Z,57.65
2023-01-03T18:50:41.329Z,56.87
2023-01-03T18:53:09.847Z,56.69
2023-01-03T18:55:37.219Z,59.51
2023-01-03T18:58:24.891Z,58.60
2023-01-03T19:00:52.038Z,58.80
2023-01-03T19:03:20.614Z,58.57
2023-01-03T19:05:48.027Z,58.07
2023-01-03T19:08:15.679Z,58.71
2023-01-03T19:10:43.597Z,59.35
2023-01-03T19:13:18.663Z,59.50
2023-01-03T19:15:46.244Z,58.28
2023-01-03T19:18:13.391Z,56.83
2023-01-03T19:20:40.540Z,58.31
2023-01-03T19:23:08.175Z,57.17
2023-01-03T19:25:35.437Z,56.91
2023-01-03T19:28:02.882Z,55.32
2023-01-03T19:30:37.227Z,55.51
2023-01-03T19:33:12.228Z,55.70
2023-01-03T19:35:39.645Z,55.73
2023-01-03T19:38:09.753Z,54.10
2023-01-03T19:40:38.322Z,54.27
2023-01-03T19:43:06.618Z,57.50
2023-01-03T19:45:34.488Z,56.76
2023-01-03T19:48:14.047Z,56.04
2023-01-03T19:50:42.125Z,59.73
2023-01-03T19:53:09.723Z,59.52
2023-01-03T19:55:38.509Z,59.65
2023-01-03T19:58:15.586Z,58.77
2023-01-03T20:00:43.362Z,56.40
2023-01-03T20:03:15.862Z,54.48
2023-01-03T20:05:43.829Z,52.55
2023-01-03T20:08:13.103Z,52.95
2023-01-03T20:10:41.643Z,52.81
2023-01-03T20:13:11.287Z,52.70
2023-01-03T20:15:41.465Z,52.08
2023-01-03T20:18:29.501Z,53.10
2023-01-03T20:21:01.840Z,54.63
2023-01-03T20:23:30.507Z,53.18
2023-01-03T20:25:59.511Z,52.40
2023-01-03T20:28:29.599Z,53.04
2023-01-03T20:30:57.587Z,53.52
2023-01-03T20:33:27.353Z,52.92
2023-01-03T20:36:11.262Z,52.09
2023-01-03T20:38:45.821Z,52.22
2023-01-03T20:41:14.850Z,50.81
2023-01-03T20:43:43.314Z,51.74
2023-01-03T20:46:13.823Z,52.64
2023-01-03T20:48:41.683Z,51.47
2023-01-03T20:51:13.383Z,51.19
2023-01-03T20:53:43.015Z,51.98
2023-01-03T20:56:14.749Z,51.74
2023-01-03T20:58:41.935Z,52.17
2023-01-03T21:01:09.302Z,51.67
2023-01-03T21:03:37.929Z,50.57
2023-01-03T21:06:22.724Z,50.35
2023-01-03T21:08:57.154Z,50.20
2023-01-03T21:11:28.445Z,50.48
2023-01-03T21:13:57.894Z,49.22
2023-01-03T21:16:29.795Z,48.25
2023-01-03T21:19:01.737Z,49.34
2023-01-03T21:21:30.654Z,49.30
2023-01-03T21:23:59.031Z,48.59
2023-01-03T21:26:26.598Z,48.11
2023-01-03T21:28:54.636Z,48.65
2023-01-03T21:31:23.299Z,49.01
2023-01-03T21:33:51.474Z,47.98
2023-01-03T21:36:23.283Z,47.67
2023-01-03T21:38:51.199Z,46.77
2023-01-03T21:41:19.593Z,47.14
2023-01-03T21:43:46.887Z,45.58
2023-01-03T21:46:18.276Z,45.84
2023-01-03T21:48:46.182Z,45.83
2023-01-03T21:51:14.340Z,45.87
2023-01-03T21:53:41.923Z,45.82
2023-01-03T21:56:12.880Z,46.21
2023-01-03T21:58:41.486Z,45.75
2023-01-03T22:01:09.633Z,46.83
2023-01-03T22:03:55.881Z,45.99
2023-01-03T22:06:23.191Z,45.30
2023-01-03T22:08:50.603Z,45.90
2023-01-03T22:11:19.019Z,45.44
2023-01-03T22:13:47.616Z,46.23
2023-01-03T22:16:15.253Z,46.14
2023-01-03T22:18:42.469Z,45.17
2023-01-03T22:21:10.578Z,46.60
2023-01-03T22:23:38.440Z,46.54
2023-01-03T22:26:11.247Z,46.53
2023-01-03T22:28:40.355Z,46.70
2023-01-03T22:31:11.413Z,45.51
2023-01-03T22:33:38.994Z,45.64
2023-01-03T22:36:06.433Z,45.51
2023-01-03T22:38:33.613Z,45.75
2023-01-03T22:41:02.819Z,48.36
2023-01-03T22:43:32.116Z,46.31
2023-01-03T22:46:01.018Z,46.58
2023-01-03T22:48:28.498Z,46.62
2023-01-03T22:50:55.653Z,45.82
2023-01-03T22:53:22.842Z,44.96
2023-01-03T22:55:50.537Z,47.28
2023-01-03T22:58:17.738Z,46.38
2023-01-03T23:00:45.897Z,45.92
2023-01-03T23:03:13.414Z,45.77
2023-01-03T23:05:40.570Z,45.56
2023-01-03T23:08:07.725Z,45.17
2023-01-03T23:10:35.217Z,44.69
2023-01-03T23:13:03.685Z,44.88
2023-01-03T23:15:31.577Z,45.35
2023-01-03T23:17:59.404Z,44.27
2023-01-03T23:20:29.658Z,43.86
2023-01-03T23:22:59.987Z,44.05
2023-01-03T23:25:28.948Z,44.05
2023-01-03T23:27:56.221Z,43.94
2023-01-03T23:30:23.588Z,43.75
2023-01-03T23:32:51.066Z,44.14
2023-01-03T23:35:18.749Z,43.70
2023-01-03T23:37:48.902Z,43.52
2023-01-03T23:40:16.591Z,43.21
2023-01-03T23:42:43.887Z,43.16
2023-01-03T23:45:11.206Z,43.33
2023-01-03T23:47:40.872Z,43.84
2023-01-03T23:50:08.309Z,43.50
2023-01-03T23:52:35.564Z,43.79
2023-01-03T23:55:08.683Z,43.63
2023-01-03T23:57:39.945Z,44.04
